createdAt,value
2024-01-29T00:03:29.104Z,7.78
2024-01-29T00:06:05.820Z,7.73
2024-01-29T00:08:41.541Z,7.68
2024-01-29T00:11:12.699Z,7.65
2024-01-29T00:13:43.771Z,7.59
2024-01-29T00:16:17.315Z,7.54
2024-01-29T00:18:55.082Z,7.51
2024-01-29T00:21:26.098Z,7.48
2024-01-29T00:24:02.371Z,7.44
2024-01-29T00:26:37.111Z,7.42
2024-01-29T00:29:36.302Z,7.40
2024-01-29T00:32:07.690Z,7.49
2024-01-29T00:34:42.420Z,7.38
2024-01-29T00:37:31.564Z,7.33
2024-01-29T00:40:02.546Z,7.36
2024-01-29T00:42:38.564Z,7.27
2024-01-29T00:45:25.155Z,7.22
2024-01-29T00:47:58.531Z,7.21
2024-01-29T00:50:31.673Z,7.15
2024-01-29T00:53:02.526Z,7.06
2024-01-29T00:55:44.482Z,7.01
2024-01-29T00:58:19.688Z,7.03
2024-01-29T01:00:50.554Z,7.01
2024-01-29T01:03:28.163Z,6.95
2024-01-29T01:06:24.498Z,6.95
2024-01-29T01:28:26.507Z,7.28
2024-01-29T01:31:10.880Z,7.26
2024-01-29T01:43:18.799Z,7.11
2024-01-29T01:49:49.291Z,7.09
2024-01-29T02:14:15.175Z,6.97
2024-01-29T02:23:33.633Z,6.88
2024-01-29T02:35:27.611Z,6.65
2024-01-29T02:38:18.828Z,6.58
2024-01-29T02:49:26.134Z,6.38
2024-01-29T03:05:34.238Z,6.52
2024-01-29T03:08:08.663Z,6.35
2024-01-29T03:14:09.225Z,6.22
2024-01-29T03:16:46.575Z,6.21
2024-01-29T03:19:19.496Z,6.09
2024-01-29T03:21:59.050Z,5.99
2024-01-29T03:24:49.257Z,5.94
2024-01-29T03:36:37.761Z,5.96
2024-01-29T03:39:11.410Z,5.90
2024-01-29T03:41:48.461Z,5.80
2024-01-29T03:44:30.557Z,5.72
2024-01-29T03:47:02.668Z,5.70
2024-01-29T03:49:50.215Z,5.62
2024-01-29T03:52:25.087Z,5.64
2024-01-29T03:54:56.466Z,5.61
2024-01-29T03:57:39.952Z,5.56
2024-01-29T04:00:12.986Z,5.56
2024-01-29T04:03:09.638Z,5.53
2024-01-29T04:06:13.973Z,5.60
2024-01-29T04:09:04.056Z,5.69
2024-01-29T04:15:03.550Z,5.77
2024-01-29T04:21:12.094Z,5.86
2024-01-29T04:30:06.692Z,5.94
2024-01-29T04:32:42.864Z,5.93
2024-01-29T04:35:45.984Z,5.86
2024-01-29T04:41:42.369Z,6.04
2024-01-29T05:04:50.126Z,6.27
2024-01-29T05:23:23.237Z,6.19
2024-01-29T05:26:19.796Z,6.13
2024-01-29T05:45:51.098Z,6.29
2024-01-29T05:48:33.516Z,6.26
2024-01-29T05:51:34.641Z,6.19
2024-01-29T06:06:57.952Z,6.29
2024-01-29T06:09:48.937Z,6.22
2024-01-29T06:18:08.489Z,6.14
2024-01-29T06:20:40.666Z,6.02
2024-01-29T06:26:05.559Z,5.97
2024-01-29T06:28:44.958Z,5.91
2024-01-29T06:31:35.745Z,5.90
2024-01-29T06:40:46.707Z,6.03
2024-01-29T06:43:57.831Z,6.18
2024-01-29T06:46:36.126Z,6.18
2024-01-29T06:49:20.818Z,6.09
2024-01-29T07:24:22.165Z,6.27
2024-01-29T07:33:06.663Z,6.37
2024-01-29T07:38:57.287Z,6.31
2024-01-29T07:41:28.074Z,6.35
2024-01-29T07:47:47.391Z,6.44
2024-01-29T07:50:44.181Z,6.56
2024-01-29T07:56:09.928Z,6.64
2024-01-29T07:58:40.520Z,6.57
2024-01-29T08:01:26.605Z,6.55
2024-01-29T08:04:13.227Z,6.59
2024-01-29T08:06:44.379Z,6.65
2024-01-29T08:09:34.356Z,6.62
2024-01-29T08:12:27.057Z,6.73
2024-01-29T08:17:47.659Z,6.91
2024-01-29T08:20:48.511Z,6.90
2024-01-29T08:23:35.200Z,7.08
2024-01-29T08:29:16.264Z,7.21
2024-01-29T08:35:15.011Z,7.54
2024-01-29T08:38:04.389Z,7.56
2024-01-29T08:40:36.741Z,7.60
2024-01-29T08:43:07.416Z,7.62
2024-01-29T08:45:56.890Z,7.64
2024-01-29T08:48:27.808Z,7.75
2024-01-29T08:51:15.665Z,7.83
2024-01-29T08:57:05.434Z,8.01
2024-01-29T08:59:55.570Z,8.17
2024-01-29T09:05:28.056Z,8.42
2024-01-29T09:11:16.138Z,8.65
2024-01-29T09:19:37.303Z,8.92
2024-01-29T09:22:26.437Z,8.91
2024-01-29T09:25:14.419Z,9.03
2024-01-29T09:27:45.425Z,9.10
2024-01-29T09:33:32.237Z,9.45
2024-01-29T09:36:33.824Z,9.53
2024-01-29T09:39:24.903Z,9.75
2024-01-29T09:42:21.636Z,9.86
2024-01-29T09:44:56.329Z,9.99
2024-01-29T09:47:28.534Z,10.06
2024-01-29T09:50:20.661Z,10.13
2024-01-29T09:52:54.156Z,10.34
2024-01-29T09:55:35.279Z,10.49
2024-01-29T09:58:07.433Z,10.72
2024-01-29T10:01:01.366Z,10.90
2024-01-29T10:03:51.681Z,11.27
2024-01-29T10:06:47.622Z,11.74
2024-01-29T10:09:18.833Z,12.26
2024-01-29T10:11:55.791Z,12.63
2024-01-29T10:20:04.521Z,13.70
2024-01-29T10:28:20.265Z,13.90
2024-01-29T10:33:42.396Z,14.08
2024-01-29T10:36:32.084Z,14.06
2024-01-29T10:40:36.493Z,13.95
2024-01-29T10:42:43.767Z,13.74
2024-01-29T10:48:24.219Z,13.48
2024-01-29T10:51:21.986Z,13.32
2024-01-29T10:54:16.824Z,13.24
2024-01-29T10:56:47.801Z,13.19
2024-01-29T10:59:21.688Z,13.02
2024-01-29T11:02:26.558Z,12.88
2024-01-29T11:17:45.200Z,14.27
2024-01-29T11:30:35.346Z,13.99
2024-01-29T11:33:24.248Z,16.49
2024-01-29T11:35:58.317Z,16.58
2024-01-29T11:38:52.539Z,16.59
2024-01-29T11:44:13.558Z,16.71
2024-01-29T11:49:34.846Z,16.68
2024-01-29T11:52:24.171Z,16.59
2024-01-29T11:54:56.553Z,16.62
2024-01-29T11:57:34.002Z,16.59
2024-01-29T12:00:30.758Z,16.59
2024-01-29T12:03:18.580Z,16.55
2024-01-29T12:05:55.390Z,16.51
2024-01-29T12:08:29.992Z,16.41
2024-01-29T12:11:04.018Z,16.27
2024-01-29T12:13:34.863Z,16.15
2024-01-29T12:16:08.723Z,16.04
2024-01-29T12:18:47.488Z,15.99
2024-01-29T12:21:30.113Z,15.88
2024-01-29T12:24:00.616Z,15.83
2024-01-29T12:26:31.276Z,15.67
2024-01-29T12:29:05.172Z,15.56
2024-01-29T12:31:41.115Z,15.50
2024-01-29T12:34:20.588Z,15.50
2024-01-29T12:36:59.213Z,15.54
2024-01-29T12:39:31.103Z,15.53
2024-01-29T12:42:01.548Z,15.46
2024-01-29T12:44:32.000Z,15.38
2024-01-29T12:47:02.382Z,15.30
2024-01-29T12:49:35.325Z,15.26
2024-01-29T12:52:06.190Z,15.19
2024-01-29T12:54:36.616Z,15.11
2024-01-29T12:57:09.114Z,15.01
2024-01-29T12:59:40.309Z,14.98
2024-01-29T13:02:13.768Z,14.93
2024-01-29T13:04:44.394Z,14.96
2024-01-29T13:07:17.015Z,15.01
2024-01-29T13:09:47.409Z,15.08
2024-01-29T13:12:17.804Z,15.12
2024-01-29T13:14:48.247Z,15.12
2024-01-29T13:17:28.385Z,15.11
2024-01-29T13:19:59.271Z,15.12
2024-01-29T13:22:29.712Z,15.10
2024-01-29T13:25:00.138Z,15.06
2024-01-29T13:27:30.911Z,15.04
2024-01-29T13:30:01.845Z,15.01
2024-01-29T13:32:32.190Z,14.99
2024-01-29T13:35:02.613Z,14.95
2024-01-29T13:37:33.020Z,14.94
2024-01-29T13:40:16.198Z,14.91
2024-01-29T13:42:55.293Z,14.97
2024-01-29T13:45:26.486Z,15.00
2024-01-29T13:47:57.898Z,14.93
2024-01-29T13:50:29.333Z,14.84
2024-01-29T13:52:59.655Z,14.76
2024-01-29T13:55:33.276Z,14.67
2024-01-29T13:58:03.704Z,14.65
2024-01-29T14:00:35.386Z,14.54
2024-01-29T14:03:06.004Z,14.47
2024-01-29T14:05:36.402Z,14.36
2024-01-29T14:08:07.230Z,14.28
2024-01-29T14:10:37.665Z,14.19
2024-01-29T14:13:10.069Z,14.14
2024-01-29T14:15:41.954Z,14.13
2024-01-29T14:18:14.716Z,14.11
2024-01-29T14:20:45.314Z,14.05
2024-01-29T14:23:15.937Z,14.01
2024-01-29T14:25:46.269Z,13.95
2024-01-29T14:28:19.468Z,13.89
2024-01-29T14:30:52.114Z,13.85
2024-01-29T14:33:22.509Z,13.82
2024-01-29T14:35:55.918Z,13.77
2024-01-29T14:38:31.449Z,13.71
2024-01-29T14:41:03.511Z,13.69
2024-01-29T14:43:33.946Z,13.64
2024-01-29T14:46:04.365Z,13.59
2024-01-29T14:48:34.839Z,13.57
2024-01-29T14:51:05.217Z,13.51
2024-01-29T14:53:35.573Z,13.47
2024-01-29T14:56:07.132Z,13.45
2024-01-29T14:58:37.532Z,13.42
2024-01-29T15:01:08.041Z,13.37
2024-01-29T15:03:40.026Z,13.34
2024-01-29T15:06:10.554Z,13.31
2024-01-29T15:08:40.978Z,13.25
2024-01-29T15:11:12.269Z,13.18
2024-01-29T15:13:42.663Z,13.13
2024-01-29T15:16:13.087Z,13.08
2024-01-29T15:18:43.624Z,13.02
2024-01-29T15:21:14.916Z,12.95
2024-01-29T15:23:45.230Z,12.90
2024-01-29T15:26:16.205Z,12.85
2024-01-29T15:28:47.154Z,12.80
2024-01-29T15:31:20.362Z,12.76
2024-01-29T15:33:53.044Z,12.73
2024-01-29T15:36:23.695Z,12.68
2024-01-29T15:38:54.050Z,12.63
2024-01-29T15:41:24.439Z,12.58
2024-01-29T15:43:54.718Z,12.53
2024-01-29T15:46:25.617Z,12.45
2024-01-29T15:48:56.105Z,12.40
2024-01-29T15:51:28.465Z,12.31
2024-01-29T15:53:59.247Z,12.27
2024-01-29T15:56:30.934Z,12.22
2024-01-29T15:59:01.747Z,12.15
2024-01-29T16:01:34.579Z,12.10
2024-01-29T16:04:10.701Z,12.04
2024-01-29T16:06:41.174Z,12.00
2024-01-29T16:09:11.591Z,11.92
2024-01-29T16:11:41.902Z,11.85
2024-01-29T16:14:12.235Z,11.81
2024-01-29T16:16:42.780Z,11.75
2024-01-29T16:19:29.585Z,11.72
2024-01-29T16:22:07.548Z,11.75
2024-01-29T16:24:43.193Z,11.69
2024-01-29T16:27:13.516Z,11.66
2024-01-29T16:29:43.828Z,11.60
2024-01-29T16:32:14.228Z,11.53
2024-01-29T16:34:44.523Z,11.48
2024-01-29T16:37:16.948Z,11.43
2024-01-29T16:39:47.384Z,11.36
2024-01-29T16:42:17.696Z,11.33
2024-01-29T16:44:53.807Z,11.27
2024-01-29T16:47:24.119Z,11.25
2024-01-29T16:49:57.276Z,11.19
2024-01-29T16:52:27.996Z,11.17
2024-01-29T16:54:58.865Z,11.13
2024-01-29T16:57:29.372Z,11.08
2024-01-29T16:59:59.680Z,11.02
2024-01-29T17:02:30.026Z,10.97
2024-01-29T17:05:00.563Z,10.92
2024-01-29T17:07:31.082Z,10.88
2024-01-29T17:10:05.722Z,10.83
2024-01-29T17:12:36.183Z,10.77
2024-01-29T17:15:08.218Z,10.72
2024-01-29T17:17:38.619Z,10.66
2024-01-29T17:20:09.336Z,10.60
2024-01-29T17:22:41.059Z,10.54
2024-01-29T17:25:14.063Z,10.50
2024-01-29T17:27:47.363Z,10.43
2024-01-29T17:30:21.308Z,10.38
2024-01-29T17:32:53.097Z,10.35
2024-01-29T17:35:23.465Z,10.28
2024-01-29T17:37:53.813Z,10.23
2024-01-29T17:40:24.288Z,10.17
2024-01-29T17:42:54.859Z,10.12
2024-01-29T17:45:25.456Z,10.07
2024-01-29T17:47:57.499Z,10.03
2024-01-29T17:50:28.998Z,10.01
2024-01-29T17:53:00.748Z,9.97
2024-01-29T17:55:41.018Z,9.94
2024-01-29T18:01:09.060Z,10.03
2024-01-29T18:03:39.490Z,9.95
2024-01-29T18:06:10.519Z,9.88
2024-01-29T18:08:40.857Z,9.83
2024-01-29T18:11:11.839Z,9.75
2024-01-29T18:13:45.360Z,9.71
2024-01-29T18:16:16.071Z,9.66
2024-01-29T18:18:46.871Z,9.63
2024-01-29T18:21:17.506Z,9.57
2024-01-29T18:23:48.771Z,9.53
2024-01-29T18:26:19.349Z,9.52
2024-01-29T18:28:49.730Z,9.48
2024-01-29T18:31:21.395Z,9.45
2024-01-29T18:36:36.315Z,9.46
2024-01-29T18:39:13.588Z,9.41
2024-01-29T18:41:44.293Z,9.40
2024-01-29T18:44:14.590Z,9.37
2024-01-29T18:46:55.766Z,9.34
2024-01-29T18:49:29.835Z,9.42
2024-01-29T18:52:07.648Z,9.44
2024-01-29T18:55:00.871Z,9.47
2024-01-29T18:57:31.315Z,9.57
2024-01-29T19:00:01.658Z,9.54
2024-01-29T19:02:31.958Z,9.54
2024-01-29T19:05:02.538Z,9.54
2024-01-29T19:07:33.402Z,9.54
2024-01-29T19:10:03.988Z,9.55
2024-01-29T19:12:40.421Z,9.56
2024-01-29T19:15:21.383Z,9.60
2024-01-29T19:20:55.457Z,9.76
2024-01-29T19:23:39.686Z,9.78
2024-01-29T19:29:35.981Z,10.02
2024-01-29T19:32:19.559Z,9.98
2024-01-29T19:34:50.506Z,10.01
2024-01-29T19:37:46.459Z,9.97
2024-01-29T19:40:15.018Z,10.07
2024-01-29T19:43:03.835Z,10.02
2024-01-29T19:45:38.815Z,10.07
2024-01-29T19:48:32.957Z,10.14
2024-01-29T20:00:20.649Z,10.42
2024-01-29T20:02:55.230Z,10.37
2024-01-29T20:08:11.133Z,10.42
2024-01-29T20:10:41.577Z,10.41
2024-01-29T20:13:16.396Z,10.41
2024-01-29T20:26:09.724Z,10.87
2024-01-29T20:29:03.343Z,11.10
2024-01-29T20:32:02.290Z,11.04
2024-01-29T20:41:05.191Z,11.22
2024-01-29T20:43:38.501Z,11.12
2024-01-29T20:46:34.902Z,11.03
2024-01-29T20:49:09.839Z,11.06
2024-01-29T20:52:02.746Z,11.01
2024-01-29T20:55:11.293Z,10.98
2024-01-29T20:58:00.356Z,11.08
2024-01-29T21:00:31.316Z,10.97
2024-01-29T21:03:15.101Z,10.86
2024-01-29T21:18:30.637Z,10.94
2024-01-29T21:21:11.803Z,10.85
2024-01-29T21:23:45.161Z,10.79
2024-01-29T21:26:39.931Z,10.70
2024-01-29T21:29:15.837Z,10.72
2024-01-29T21:31:47.733Z,10.65
2024-01-29T21:34:28.911Z,10.63
2024-01-29T21:40:28.997Z,10.75
2024-01-29T21:43:28.090Z,10.78
2024-01-29T21:46:17.855Z,10.68
2024-01-29T21:48:48.621Z,10.71
2024-01-29T21:51:35.620Z,10.68
2024-01-29T21:56:57.428Z,10.73
2024-01-29T22:02:50.277Z,10.81
2024-01-29T22:05:21.337Z,10.79
2024-01-29T22:07:51.975Z,10.70
2024-01-29T22:10:33.229Z,10.65
2024-01-29T22:13:26.164Z,10.62
2024-01-29T22:15:57.868Z,10.63
2024-01-29T22:21:36.716Z,10.57
2024-01-29T22:24:07.434Z,10.46
2024-01-29T22:29:32.523Z,10.42
2024-01-29T22:34:56.184Z,10.43
2024-01-29T22:52:32.706Z,10.48
2024-01-29T22:55:21.377Z,10.38
2024-01-29T22:58:00.253Z,10.37
2024-01-29T23:00:33.328Z,10.28
2024-01-29T23:03:37.717Z,10.20
2024-01-29T23:06:08.622Z,10.25
2024-01-29T23:08:44.649Z,10.13
2024-01-29T23:11:21.318Z,10.06
2024-01-29T23:14:10.755Z,10.01
2024-01-29T23:16:45.419Z,10.01
2024-01-29T23:19:23.379Z,9.92
2024-01-29T23:21:58.514Z,9.91
2024-01-29T23:24:29.132Z,9.87
2024-01-29T23:26:59.774Z,9.80
2024-01-29T23:46:13.600Z,10.14
2024-01-29T23:48:45.984Z,10.09
2024-01-29T23:51:39.832Z,9.95
2024-01-29T23:54:12.464Z,9.94
2024-01-29T23:56:57.071Z,9.85
2024-01-29T23:59:51.543Z,9.78
